Time;durP1;ratioP1;P1;durP2;ratioP2;P2;SDS_P1;SDS_P2;PMS_P1;PMS_P2;Temp;Humidity;BMP_temperature;BMP_pressure;BME280_temperature;BME280_humidity;BME280_pressure;Samples;Min_cycle;Max_cycle;Signal;HPM_P1;HPM_P2
2020/12/17 00:01:53;;;;;;;9.90;6.17;;;1.50;96.30;;;;;;4993238;28;20408;-77
2020/12/17 00:04:19;;;;;;;8.50;6.17;;;1.40;96.30;;;;;;4993687;28;20353;-77
2020/12/17 00:06:44;;;;;;;9.20;5.47;;;1.40;96.30;;;;;;4993615;28;20528;-77
2020/12/17 00:09:09;;;;;;;8.40;5.60;;;1.40;96.30;;;;;;4993606;28;20656;-77
2020/12/17 00:11:35;;;;;;;9.60;6.23;;;1.40;96.30;;;;;;4993192;28;20304;-77
2020/12/17 00:14:00;;;;;;;8.50;6.03;;;1.30;96.30;;;;;;4993443;28;20196;-77
2020/12/17 00:16:26;;;;;;;7.80;5.50;;;1.40;96.30;;;;;;4993557;28;20712;-77
2020/12/17 00:18:51;;;;;;;9.70;6.97;;;1.40;96.30;;;;;;4993414;28;20236;-77
2020/12/17 00:21:20;;;;;;;8.90;6.50;;;1.40;96.30;;;;;;4993724;28;20205;-77
2020/12/17 00:23:45;;;;;;;10.20;6.13;;;1.40;96.30;;;;;;4992801;28;20190;-77
2020/12/17 00:26:12;;;;;;;9.27;7.23;;;1.40;96.30;;;;;;4993296;28;20404;-77
2020/12/17 00:28:38;;;;;;;7.37;5.17;;;1.40;96.30;;;;;;4992045;28;20201;-77
2020/12/17 00:31:03;;;;;;;13.70;7.97;;;1.40;96.30;;;;;;4993116;28;20425;-77
2020/12/17 00:33:29;;;;;;;10.63;6.60;;;1.40;96.30;;;;;;4992469;28;20499;-77
2020/12/17 00:35:54;;;;;;;9.20;6.20;;;1.30;96.30;;;;;;4993132;28;20232;-76
2020/12/17 00:38:20;;;;;;;12.50;7.00;;;1.30;96.30;;;;;;4993163;28;20177;-76
2020/12/17 00:40:45;;;;;;;9.60;6.63;;;1.30;96.30;;;;;;4993071;28;20182;-77
2020/12/17 00:43:11;;;;;;;8.87;6.30;;;1.30;96.30;;;;;;4992581;28;20206;-77
2020/12/17 00:45:36;;;;;;;9.13;6.50;;;1.30;96.30;;;;;;4993114;28;20327;-77
2020/12/17 00:48:02;;;;;;;10.27;7.60;;;1.40;96.30;;;;;;4992886;28;20208;-77
2020/12/17 00:50:27;;;;;;;9.93;6.70;;;1.40;96.30;;;;;;4993049;28;20598;-77
2020/12/17 00:52:53;;;;;;;8.40;5.60;;;1.30;96.30;;;;;;4992361;28;20181;-77
2020/12/17 00:55:18;;;;;;;9.37;6.43;;;1.30;96.30;;;;;;4992978;28;20529;-77
2020/12/17 00:57:44;;;;;;;9.70;6.27;;;1.30;96.30;;;;;;4992953;28;20173;-77
2020/12/17 05:00:58;;;;;;;26.53;9.60;;;0.90;96.30;;;;;;5707593;23;20526;-77
2020/12/17 05:03:23;;;;;;;13.47;8.50;;;1.00;96.30;;;;;;4992098;28;20411;-76
2020/12/17 05:05:52;;;;;;;17.43;11.20;;;1.10;96.30;;;;;;4992353;28;20544;-77
2020/12/17 05:08:21;;;;;;;17.87;10.20;;;1.10;96.30;;;;;;4992584;28;20228;-77
2020/12/17 05:10:50;;;;;;;16.17;10.13;;;1.00;96.30;;;;;;4992781;28;20428;-76
2020/12/17 05:13:16;;;;;;;15.03;10.53;;;0.90;96.30;;;;;;4991997;28;20908;-77
2020/12/17 05:15:44;;;;;;;14.80;9.40;;;0.90;96.30;;;;;;5006722;23;20541;-76
2020/12/17 05:18:09;;;;;;;14.67;9.80;;;0.90;96.30;;;;;;4993810;28;20421;-76
2020/12/17 05:20:38;;;;;;;18.20;9.73;;;0.90;96.30;;;;;;4993781;28;20431;-77
2020/12/17 05:23:05;;;;;;;24.37;13.80;;;0.90;96.30;;;;;;4993188;28;20232;-76
2020/12/17 05:25:31;;;;;;;19.97;11.60;;;0.90;96.30;;;;;;4992686;28;20440;-77
2020/12/17 05:27:59;;;;;;;16.27;9.33;;;0.90;96.30;;;;;;4993499;28;20456;-76
2020/12/17 05:30:32;;;;;;;27.47;14.10;;;0.80;96.30;;;;;;4994118;28;20429;-76
2020/12/17 05:32:59;;;;;;;14.33;9.20;;;0.90;96.30;;;;;;4993510;28;20419;-76
2020/12/17 05:35:34;;;;;;;24.90;11.93;;;0.90;96.30;;;;;;4992683;28;20494;-77
2020/12/17 05:38:02;;;;;;;16.03;8.90;;;0.90;96.30;;;;;;4989713;28;20414;-77
2020/12/17 05:40:28;;;;;;;20.17;11.20;;;0.90;96.30;;;;;;4993715;28;20420;-76
2020/12/17 05:42:54;;;;;;;19.97;12.10;;;0.90;96.30;;;;;;4992763;28;20413;-77
2020/12/17 05:45:26;;;;;;;14.57;10.33;;;0.90;96.30;;;;;;4993820;28;20201;-76
2020/12/17 05:48:13;;;;;;;17.83;11.57;;;0.80;96.30;;;;;;4993893;28;20448;-77
2020/12/17 05:50:49;;;;;;;17.60;11.83;;;0.80;96.30;;;;;;4993768;28;20409;-77
2020/12/17 05:53:18;;;;;;;23.97;13.00;;;0.90;96.30;;;;;;4995966;28;20496;-76
2020/12/17 05:55:44;;;;;;;18.00;9.80;;;0.90;96.30;;;;;;4997353;28;20932;-76
2020/12/17 05:58:12;;;;;;;25.77;12.77;;;0.90;96.30;;;;;;4997092;28;20467;-77
2020/12/17 06:00:38;;;;;;;18.20;10.63;;;0.90;96.30;;;;;;4996623;28;20177;-77
2020/12/17 06:03:09;;;;;;;19.57;11.40;;;0.80;96.30;;;;;;4989441;28;20457;-76
2020/12/17 06:05:44;;;;;;;23.50;13.93;;;0.80;96.30;;;;;;4994019;28;20440;-76
2020/12/17 06:08:16;;;;;;;19.93;11.17;;;0.70;96.30;;;;;;4995400;28;21021;-76
2020/12/17 06:10:48;;;;;;;22.60;13.37;;;0.80;96.30;;;;;;4990848;28;20413;-76
2020/12/17 06:13:15;;;;;;;19.30;12.90;;;0.80;96.30;;;;;;4987308;28;20408;-76
2020/12/17 06:15:44;;;;;;;17.40;10.30;;;0.80;96.30;;;;;;4984964;28;20837;-76
2020/12/17 06:18:11;;;;;;;22.60;11.43;;;0.80;96.30;;;;;;4991192;28;20936;-76
2020/12/17 06:20:36;;;;;;;20.10;13.87;;;0.80;96.30;;;;;;4996779;28;20412;-76
2020/12/17 06:23:05;;;;;;;24.23;13.90;;;0.80;96.30;;;;;;4996328;28;20413;-76
2020/12/17 06:25:32;;;;;;;17.77;10.60;;;0.80;96.30;;;;;;4995970;28;20264;-76
2020/12/17 06:27:58;;;;;;;22.67;12.77;;;0.90;96.30;;;;;;4997695;28;20587;-75
2020/12/17 06:30:28;;;;;;;18.13;11.07;;;0.80;96.30;;;;;;4995855;28;20439;-76
2020/12/17 06:32:56;;;;;;;20.33;11.03;;;0.90;96.30;;;;;;4996179;28;20181;-76
2020/12/17 06:35:24;;;;;;;18.60;11.30;;;0.90;96.30;;;;;;4997100;28;20436;-76
2020/12/17 06:37:51;;;;;;;19.23;10.90;;;0.90;96.30;;;;;;4996344;28;20416;-76
2020/12/17 06:40:30;;;;;;;15.00;9.70;;;0.90;96.30;;;;;;4996457;28;20471;-77
2020/12/17 06:42:55;;;;;;;21.63;11.77;;;0.90;96.30;;;;;;4995867;28;20909;-76
2020/12/17 06:45:34;;;;;;;20.73;11.33;;;0.90;96.30;;;;;;4994209;28;20436;-76
2020/12/17 06:48:33;;;;;;;19.03;11.27;;;0.90;96.30;;;;;;4984863;28;20205;-76
2020/12/17 06:51:01;;;;;;;22.37;11.70;;;1.00;96.30;;;;;;4986078;28;20429;-75
2020/12/17 06:53:40;;;;;;;19.77;11.70;;;1.00;96.30;;;;;;4984787;28;20424;-76
2020/12/17 06:56:09;;;;;;;20.60;12.90;;;1.10;96.30;;;;;;4994403;28;20417;-76
2020/12/17 06:58:34;;;;;;;22.63;14.00;;;1.10;96.30;;;;;;4993435;28;20455;-75
2020/12/17 07:01:00;;;;;;;21.90;12.43;;;1.10;96.30;;;;;;4977832;28;20417;-75
2020/12/17 07:03:55;;;;;;;23.80;12.80;;;1.10;96.30;;;;;;4984204;28;20182;-76
2020/12/17 07:06:22;;;;;;;22.03;13.07;;;1.10;96.30;;;;;;4975633;28;20190;-75
2020/12/17 07:08:59;;;;;;;22.43;14.00;;;1.20;96.30;;;;;;4980229;28;20979;-75
2020/12/17 07:11:45;;;;;;;20.30;12.80;;;1.30;96.30;;;;;;4986778;28;20412;-76
2020/12/17 07:14:31;;;;;;;27.00;17.63;;;1.30;96.30;;;;;;4978144;28;21008;-76
2020/12/17 07:16:59;;;;;;;26.20;14.20;;;1.30;96.30;;;;;;4975426;28;20428;-75
2020/12/17 07:19:39;;;;;;;25.63;13.83;;;1.30;96.30;;;;;;4976789;28;20421;-76
2020/12/17 07:22:10;;;;;;;23.80;12.53;;;1.30;96.30;;;;;;4996196;28;20438;-75
2020/12/17 07:24:37;;;;;;;25.57;13.33;;;1.40;96.30;;;;;;4994046;28;20804;-75
2020/12/17 07:27:09;;;;;;;23.20;12.87;;;1.40;96.30;;;;;;4994689;28;20452;-77
2020/12/17 07:29:43;;;;;;;22.40;12.77;;;1.50;96.30;;;;;;4986969;28;20428;-76
2020/12/17 07:32:24;;;;;;;22.50;13.70;;;1.50;96.30;;;;;;4974922;28;20436;-76
2020/12/17 07:34:51;;;;;;;23.83;12.87;;;1.60;96.30;;;;;;4990845;28;20516;-76
2020/12/17 07:37:52;;;;;;;23.83;12.07;;;1.60;96.30;;;;;;4994237;28;20417;-76
2020/12/17 07:40:35;;;;;;;17.67;11.30;;;1.70;96.30;;;;;;4977044;28;20420;-76
2020/12/17 07:43:02;;;;;;;21.47;12.40;;;1.80;96.30;;;;;;4989918;28;20747;-76
2020/12/17 07:45:41;;;;;;;18.03;11.77;;;1.80;96.30;;;;;;4987166;28;20509;-76
2020/12/17 07:48:34;;;;;;;19.17;12.10;;;1.80;96.30;;;;;;4974468;28;20481;-76
2020/12/17 07:51:05;;;;;;;23.10;14.20;;;1.80;96.30;;;;;;4974650;28;20425;-77
2020/12/17 07:53:31;;;;;;;24.20;14.00;;;1.90;96.30;;;;;;4980154;28;20431;-77
2020/12/17 07:55:56;;;;;;;19.73;12.80;;;1.90;96.30;;;;;;4993752;28;20523;-77
2020/12/17 07:58:22;;;;;;;22.00;12.90;;;2.00;96.30;;;;;;4993638;28;20224;-77
2020/12/17 08:00:48;;;;;;;19.27;11.00;;;2.00;96.30;;;;;;4991363;28;20178;-77
2020/12/17 08:03:13;;;;;;;18.97;12.70;;;2.00;96.30;;;;;;4982783;28;20181;-78
2020/12/17 08:05:39;;;;;;;19.53;12.33;;;2.00;96.30;;;;;;4987248;28;20198;-79
2020/12/17 08:08:05;;;;;;;21.70;12.70;;;2.00;96.30;;;;;;4984317;28;20324;-78
2020/12/17 08:10:37;;;;;;;20.10;13.23;;;2.00;96.30;;;;;;4993759;28;20174;-78
2020/12/17 08:13:02;;;;;;;22.93;14.50;;;2.00;96.30;;;;;;4991995;28;20174;-77
2020/12/17 08:15:28;;;;;;;20.80;11.20;;;2.10;96.30;;;;;;4973861;28;20609;-77
2020/12/17 08:17:56;;;;;;;20.73;13.40;;;2.00;96.30;;;;;;4972799;28;20182;-77
2020/12/17 08:20:25;;;;;;;23.40;14.37;;;2.10;96.30;;;;;;4974244;28;20183;-77
2020/12/17 08:22:52;;;;;;;17.17;11.07;;;2.20;96.30;;;;;;4974334;28;20413;-78
2020/12/17 08:25:17;;;;;;;23.63;12.60;;;2.20;96.30;;;;;;4973972;28;20945;-78
2020/12/17 08:27:43;;;;;;;25.30;15.17;;;2.20;96.30;;;;;;4990035;28;20456;-78
2020/12/17 08:30:08;;;;;;;19.83;11.20;;;2.20;96.30;;;;;;4993735;28;20170;-78
2020/12/17 08:32:35;;;;;;;22.37;12.03;;;2.20;96.30;;;;;;4988009;28;20261;-78
2020/12/17 08:35:00;;;;;;;26.53;14.50;;;2.30;96.30;;;;;;4989249;28;20229;-77
2020/12/17 08:37:26;;;;;;;26.97;13.27;;;2.40;96.30;;;;;;4973747;28;20433;-78
2020/12/17 08:40:04;;;;;;;20.33;13.43;;;2.40;96.30;;;;;;4974158;28;20229;-77
2020/12/17 08:42:34;;;;;;;18.93;12.47;;;2.50;96.30;;;;;;4981095;28;20204;-78
2020/12/17 08:45:19;;;;;;;20.40;12.70;;;2.50;96.30;;;;;;4992416;28;20440;-78
2020/12/17 08:47:49;;;;;;;23.90;13.87;;;2.60;96.30;;;;;;4993332;28;20849;-78
2020/12/17 08:50:14;;;;;;;23.60;15.30;;;2.70;96.30;;;;;;4993486;28;20417;-78
2020/12/17 08:52:40;;;;;;;20.27;14.20;;;2.80;96.30;;;;;;4992921;28;20467;-77
2020/12/17 08:55:10;;;;;;;23.23;13.93;;;2.90;96.30;;;;;;4992953;28;20198;-77
2020/12/17 08:57:36;;;;;;;20.20;12.97;;;3.00;96.30;;;;;;4977903;28;20524;-77
2020/12/17 09:00:06;;;;;;;21.67;14.57;;;2.90;96.30;;;;;;4973415;28;20425;-77
2020/12/17 09:02:31;;;;;;;24.20;14.00;;;3.00;96.30;;;;;;4975609;28;20815;-79
2020/12/17 09:04:59;;;;;;;22.57;13.07;;;2.90;96.30;;;;;;4978359;28;20437;-79
2020/12/17 09:07:34;;;;;;;24.77;14.27;;;2.90;96.30;;;;;;4981628;28;20343;-76
2020/12/17 09:10:15;;;;;;;22.87;13.30;;;2.90;96.30;;;;;;4975747;28;20864;-77
2020/12/17 09:12:42;;;;;;;27.90;14.90;;;2.80;96.30;;;;;;4977265;28;20425;-78
2020/12/17 09:15:09;;;;;;;28.87;16.33;;;2.80;96.30;;;;;;4975639;28;20450;-78
2020/12/17 09:17:35;;;;;;;21.37;14.57;;;2.80;96.30;;;;;;4984935;28;20809;-78
2020/12/17 09:20:14;;;;;;;23.97;11.63;;;2.80;96.30;;;;;;4988327;28;20429;-78
2020/12/17 09:22:39;;;;;;;28.37;16.23;;;2.90;96.30;;;;;;4973174;28;20433;-78
2020/12/17 09:25:05;;;;;;;24.17;14.83;;;2.80;96.30;;;;;;4975493;28;20995;-78
2020/12/17 09:27:36;;;;;;;22.10;14.40;;;2.90;96.30;;;;;;4983700;28;20213;-77
2020/12/17 09:30:13;;;;;;;28.50;15.67;;;2.90;96.30;;;;;;4980426;28;20177;-77
2020/12/17 09:32:56;;;;;;;23.93;14.17;;;3.00;96.30;;;;;;4996635;28;20388;-78
2020/12/17 09:35:28;;;;;;;27.53;15.03;;;3.10;96.30;;;;;;4986797;28;20448;-77
2020/12/17 09:38:07;;;;;;;24.10;15.97;;;3.10;96.30;;;;;;4978369;28;20425;-77
2020/12/17 09:40:37;;;;;;;29.47;16.40;;;3.20;96.30;;;;;;4983877;28;20459;-77
2020/12/17 09:43:10;;;;;;;22.23;13.03;;;3.30;96.30;;;;;;4995589;28;20455;-78
2020/12/17 09:45:38;;;;;;;24.80;15.60;;;3.30;96.30;;;;;;4996394;28;20937;-78
2020/12/17 09:48:30;;;;;;;21.30;13.90;;;3.30;96.30;;;;;;4994477;28;20884;-78
2020/12/17 09:51:01;;;;;;;27.07;14.67;;;3.30;96.30;;;;;;4996442;28;20431;-78
2020/12/17 09:53:30;;;;;;;25.33;15.37;;;3.20;96.30;;;;;;4996215;28;20420;-78
2020/12/17 09:55:56;;;;;;;19.80;12.47;;;3.20;96.30;;;;;;4991600;28;20437;-77
2020/12/17 09:58:22;;;;;;;24.17;15.53;;;3.30;96.30;;;;;;4976794;28;20409;-78
2020/12/17 10:00:47;;;;;;;22.83;12.80;;;3.30;96.30;;;;;;4979570;28;20425;-78
2020/12/17 10:03:13;;;;;;;25.50;15.20;;;3.30;96.30;;;;;;4975830;28;20213;-78
2020/12/17 10:05:39;;;;;;;30.80;14.93;;;3.30;96.30;;;;;;4976257;28;20202;-78
2020/12/17 10:08:06;;;;;;;21.50;13.83;;;3.40;96.30;;;;;;4976312;28;20214;-78
2020/12/17 10:10:34;;;;;;;25.97;16.33;;;3.50;96.30;;;;;;4979060;28;20413;-78
2020/12/17 10:13:00;;;;;;;25.67;16.03;;;3.50;96.30;;;;;;4989947;28;20507;-78
2020/12/17 10:15:26;;;;;;;29.03;16.30;;;3.50;96.30;;;;;;4990343;28;20465;-78
2020/12/17 10:17:53;;;;;;;25.90;15.10;;;3.60;96.30;;;;;;4985091;28;20429;-78
2020/12/17 10:20:20;;;;;;;24.53;17.23;;;3.70;96.30;;;;;;4980992;28;20853;-78
2020/12/17 10:22:46;;;;;;;23.87;15.80;;;3.80;96.30;;;;;;4984771;28;20433;-78
2020/12/17 10:25:12;;;;;;;24.33;15.83;;;4.10;96.30;;;;;;4983808;28;20840;-78
2020/12/17 10:27:38;;;;;;;19.87;12.77;;;4.30;96.30;;;;;;4977197;28;20475;-78
2020/12/17 10:30:05;;;;;;;22.13;14.40;;;4.10;96.30;;;;;;4985384;28;20509;-78
2020/12/17 10:32:31;;;;;;;22.17;12.73;;;4.20;96.30;;;;;;4985430;28;20596;-78
2020/12/17 10:34:57;;;;;;;23.30;12.77;;;4.10;96.30;;;;;;4992291;28;20463;-78
2020/12/17 10:37:22;;;;;;;25.53;15.17;;;4.20;96.30;;;;;;4991121;28;20912;-78
2020/12/17 10:39:48;;;;;;;21.83;14.20;;;4.90;96.30;;;;;;4991026;28;20205;-78
2020/12/17 10:42:13;;;;;;;20.17;12.70;;;4.80;96.30;;;;;;4991297;28;20190;-78
2020/12/17 10:44:39;;;;;;;22.03;14.07;;;4.50;96.30;;;;;;4995613;28;20201;-79
2020/12/17 10:47:06;;;;;;;22.30;12.47;;;4.10;96.30;;;;;;4983179;28;20311;-78
2020/12/17 10:49:31;;;;;;;22.87;13.93;;;4.20;96.30;;;;;;4995627;28;20177;-78
2020/12/17 10:51:57;;;;;;;17.63;11.00;;;4.30;96.30;;;;;;4981312;28;20421;-78
2020/12/17 10:54:22;;;;;;;23.87;14.30;;;4.30;96.30;;;;;;4976104;28;20226;-78
2020/12/17 10:56:48;;;;;;;23.27;14.00;;;4.20;96.30;;;;;;4976044;28;20178;-78
2020/12/17 10:59:13;;;;;;;22.37;14.00;;;4.30;96.30;;;;;;4989057;28;20178;-78
2020/12/17 11:01:39;;;;;;;21.90;13.50;;;4.30;96.30;;;;;;4981660;28;20209;-78
2020/12/17 11:04:04;;;;;;;24.50;14.10;;;4.30;96.30;;;;;;4993863;28;20198;-79
2020/12/17 11:06:30;;;;;;;20.10;13.73;;;4.10;96.30;;;;;;4995608;28;20182;-78
2020/12/17 11:08:55;;;;;;;19.87;11.60;;;4.10;96.30;;;;;;4981901;28;20302;-78
2020/12/17 11:11:21;;;;;;;21.77;14.77;;;4.10;96.30;;;;;;4976229;28;20175;-79
2020/12/17 11:13:47;;;;;;;22.13;14.07;;;4.20;96.30;;;;;;4976796;28;20181;-79
2020/12/17 11:16:12;;;;;;;19.50;13.77;;;4.30;96.30;;;;;;4986913;28;20236;-78
2020/12/17 11:18:39;;;;;;;37.47;23.27;;;4.30;96.30;;;;;;4995269;28;20634;-78
2020/12/17 11:21:05;;;;;;;37.90;22.20;;;4.30;96.30;;;;;;4989174;28;20551;-78
2020/12/17 11:23:33;;;;;;;39.07;25.10;;;4.40;96.30;;;;;;4978430;28;20421;-78
2020/12/17 11:25:58;;;;;;;30.17;19.07;;;4.60;96.30;;;;;;4986194;28;20437;-79
2020/12/17 11:28:24;;;;;;;33.97;21.17;;;4.50;96.30;;;;;;4994126;28;20460;-79
2020/12/17 11:30:49;;;;;;;17.73;12.50;;;4.80;96.30;;;;;;4993736;28;20224;-79
2020/12/17 11:33:15;;;;;;;21.00;14.33;;;5.00;96.30;;;;;;4994033;28;20180;-79
2020/12/17 11:35:40;;;;;;;17.00;12.07;;;5.00;96.30;;;;;;4994515;28;20599;-79
2020/12/17 11:38:05;;;;;;;16.07;11.47;;;4.80;96.30;;;;;;4993832;28;20217;-79
2020/12/17 11:40:31;;;;;;;20.23;13.00;;;5.00;96.30;;;;;;4994461;28;20177;-78
2020/12/17 11:42:57;;;;;;;19.87;12.03;;;5.20;96.30;;;;;;4989019;28;20213;-78
2020/12/17 11:45:24;;;;;;;16.40;11.00;;;5.40;96.30;;;;;;4975222;28;20217;-78
2020/12/17 11:47:50;;;;;;;21.70;13.70;;;5.40;96.30;;;;;;4974611;28;20229;-78
2020/12/17 11:50:16;;;;;;;20.00;12.93;;;5.10;96.30;;;;;;4974979;28;20440;-78
2020/12/17 11:52:42;;;;;;;17.70;12.73;;;5.10;96.30;;;;;;4984530;28;20539;-78
2020/12/17 11:55:08;;;;;;;20.37;13.10;;;4.90;96.30;;;;;;4986080;28;20245;-78
2020/12/17 11:57:35;;;;;;;18.53;13.50;;;4.90;96.30;;;;;;4974947;28;20521;-78
2020/12/17 12:00:03;;;;;;;17.27;13.00;;;4.90;96.30;;;;;;4982178;28;20482;-78
2020/12/17 12:02:28;;;;;;;18.43;12.03;;;5.10;96.30;;;;;;4992899;28;20436;-77
2020/12/17 12:04:54;;;;;;;18.97;12.00;;;5.40;96.30;;;;;;4981811;28;20432;-77
2020/12/17 12:07:23;;;;;;;18.20;12.23;;;5.50;96.30;;;;;;4985858;28;20670;-78
2020/12/17 12:09:48;;;;;;;17.97;12.00;;;5.40;96.30;;;;;;4990948;28;20201;-78
2020/12/17 12:12:13;;;;;;;15.90;11.17;;;5.30;96.30;;;;;;4975276;28;20460;-79
2020/12/17 12:14:39;;;;;;;16.63;11.10;;;5.40;96.30;;;;;;4993518;28;20228;-78
2020/12/17 12:17:04;;;;;;;15.40;11.90;;;5.30;96.30;;;;;;4997182;28;20182;-79
2020/12/17 12:19:30;;;;;;;14.57;10.27;;;5.20;96.30;;;;;;4988973;28;20179;-79
2020/12/17 12:21:55;;;;;;;15.20;9.40;;;5.20;96.30;;;;;;4979699;28;20190;-79
2020/12/17 12:24:21;;;;;;;17.13;12.00;;;5.10;96.30;;;;;;4977598;28;20202;-79
2020/12/17 12:26:47;;;;;;;20.53;13.27;;;5.20;96.30;;;;;;4977269;28;20551;-79
2020/12/17 12:29:13;;;;;;;17.10;11.50;;;5.50;96.30;;;;;;4993064;28;20173;-79
2020/12/17 12:31:39;;;;;;;20.10;12.37;;;5.60;96.30;;;;;;4988317;28;20420;-79
2020/12/17 12:34:04;;;;;;;21.20;12.77;;;5.80;96.30;;;;;;4977936;28;20277;-79
2020/12/17 12:36:30;;;;;;;17.47;11.37;;;5.70;96.30;;;;;;4975620;28;20622;-79
2020/12/17 12:38:56;;;;;;;17.10;11.17;;;5.80;96.30;;;;;;4976813;28;20186;-78
2020/12/17 12:41:21;;;;;;;14.00;10.83;;;5.70;96.30;;;;;;4993205;28;20479;-78
2020/12/17 12:43:47;;;;;;;12.50;9.23;;;5.70;96.30;;;;;;4993260;28;20654;-78
2020/12/17 12:46:17;;;;;;;16.40;11.67;;;5.80;96.30;;;;;;4990627;28;20178;-78
2020/12/17 12:48:43;;;;;;;15.87;10.37;;;5.80;96.30;;;;;;4974656;28;20277;-79
2020/12/17 12:51:08;;;;;;;19.00;11.40;;;5.80;96.30;;;;;;4981240;28;20456;-78
2020/12/17 12:53:34;;;;;;;17.90;10.90;;;5.80;96.30;;;;;;4975115;28;20201;-78
2020/12/17 12:55:59;;;;;;;17.50;11.30;;;5.80;96.30;;;;;;4993353;28;20201;-79
2020/12/17 12:58:25;;;;;;;16.10;10.97;;;5.80;96.30;;;;;;4984944;28;20174;-78
2020/12/17 13:00:51;;;;;;;14.83;10.20;;;5.80;96.30;;;;;;4973305;28;20186;-78
2020/12/17 13:03:17;;;;;;;13.57;9.63;;;5.80;96.30;;;;;;4978311;28;20558;-78
2020/12/17 13:05:43;;;;;;;14.20;9.70;;;5.60;96.30;;;;;;4989117;28;20434;-78
2020/12/17 13:08:08;;;;;;;14.83;9.60;;;5.70;96.30;;;;;;4989048;28;20213;-78
2020/12/17 13:10:38;;;;;;;13.90;10.03;;;5.60;96.30;;;;;;4990914;28;20180;-78
2020/12/17 13:13:08;;;;;;;13.90;9.20;;;5.40;96.30;;;;;;4974774;28;20728;-78
2020/12/17 13:15:34;;;;;;;14.37;9.90;;;5.40;96.30;;;;;;4974042;28;20545;-78
2020/12/17 13:18:00;;;;;;;13.10;8.93;;;5.40;96.30;;;;;;4987996;28;20413;-78
2020/12/17 13:20:28;;;;;;;12.73;9.23;;;5.40;96.30;;;;;;4984793;28;20977;-78
2020/12/17 13:22:54;;;;;;;14.60;9.57;;;5.20;96.30;;;;;;4986919;28;20184;-79
2020/12/17 13:25:21;;;;;;;13.57;9.50;;;5.30;96.30;;;;;;4992714;28;20440;-78
2020/12/17 13:27:47;;;;;;;12.30;9.07;;;5.20;96.30;;;;;;4992592;28;20455;-79
2020/12/17 13:30:12;;;;;;;13.37;8.57;;;5.10;96.30;;;;;;4975020;28;20418;-78
2020/12/17 13:32:38;;;;;;;14.27;9.20;;;5.10;96.30;;;;;;4985864;28;20173;-78
2020/12/17 13:35:04;;;;;;;14.00;8.53;;;5.00;96.30;;;;;;4992701;28;20200;-79
2020/12/17 13:37:29;;;;;;;15.13;11.10;;;4.90;96.30;;;;;;4992878;28;20201;-79
2020/12/17 13:39:55;;;;;;;22.50;13.23;;;4.80;96.30;;;;;;4992848;28;20178;-79
2020/12/17 13:42:23;;;;;;;63.60;42.07;;;4.80;96.30;;;;;;4992445;28;20547;-79
2020/12/17 13:44:48;;;;;;;27.23;19.20;;;4.80;96.30;;;;;;4989258;28;20213;-79
2020/12/17 13:47:14;;;;;;;54.23;42.80;;;4.70;96.30;;;;;;4977412;28;20467;-79
2020/12/17 13:49:39;;;;;;;24.63;18.03;;;4.70;96.30;;;;;;4985958;28;20248;-79
2020/12/17 13:52:05;;;;;;;12.47;10.37;;;4.70;96.30;;;;;;4975362;28;20656;-79
2020/12/17 13:54:31;;;;;;;15.17;10.63;;;4.70;96.30;;;;;;4982240;28;20617;-79
2020/12/17 13:56:56;;;;;;;14.63;10.13;;;4.60;96.30;;;;;;4984077;28;20183;-79
2020/12/17 13:59:21;;;;;;;20.27;14.17;;;4.60;96.30;;;;;;4987978;28;20181;-79
2020/12/17 14:01:47;;;;;;;16.00;12.73;;;4.50;96.30;;;;;;4973924;28;20183;-79
2020/12/17 14:04:12;;;;;;;29.43;22.50;;;4.30;96.30;;;;;;4989520;28;20285;-79
2020/12/17 14:06:38;;;;;;;12.23;9.80;;;4.20;96.30;;;;;;4982416;28;20178;-79
2020/12/17 14:09:04;;;;;;;15.17;10.53;;;4.30;96.30;;;;;;4985620;28;20206;-79
2020/12/17 14:11:30;;;;;;;16.27;10.10;;;4.20;96.30;;;;;;4988289;28;20170;-79
2020/12/17 14:13:55;;;;;;;18.47;10.37;;;4.10;96.30;;;;;;4982240;28;20563;-80
2020/12/17 14:16:21;;;;;;;13.67;10.00;;;4.20;96.30;;;;;;4984829;28;20178;-79
2020/12/17 14:18:51;;;;;;;15.97;10.60;;;4.20;96.30;;;;;;4981151;28;20186;-79
2020/12/17 14:21:20;;;;;;;20.57;12.33;;;4.10;96.30;;;;;;4999547;28;20186;-79
2020/12/17 14:23:45;;;;;;;21.07;12.90;;;4.10;96.30;;;;;;4979016;28;20432;-79
2020/12/17 14:26:11;;;;;;;16.77;11.17;;;4.10;96.30;;;;;;4981651;28;20417;-79
2020/12/17 14:28:37;;;;;;;11.80;8.10;;;4.10;96.30;;;;;;4996205;28;20232;-79
2020/12/17 14:31:02;;;;;;;14.67;9.00;;;4.20;96.30;;;;;;4996866;28;20217;-79
2020/12/17 14:33:27;;;;;;;10.83;5.93;;;4.50;96.30;;;;;;4991661;28;20210;-80
2020/12/17 14:35:53;;;;;;;5.80;4.60;;;4.70;96.30;;;;;;4976545;28;20198;-78
2020/12/17 14:38:18;;;;;;;5.33;4.10;;;5.30;96.30;;;;;;4976949;28;20174;-79
2020/12/17 14:40:44;;;;;;;5.50;3.67;;;5.60;96.30;;;;;;4983269;28;20169;-78
2020/12/17 14:43:09;;;;;;;8.83;4.23;;;5.60;96.30;;;;;;4988901;28;20184;-79
2020/12/17 14:45:35;;;;;;;3.47;3.00;;;5.90;96.30;;;;;;4987970;28;20217;-79
2020/12/17 14:48:00;;;;;;;5.93;4.37;;;6.10;96.30;;;;;;4981065;28;20344;-79
2020/12/17 14:50:26;;;;;;;12.50;8.50;;;6.10;96.30;;;;;;4989494;28;20178;-79
2020/12/17 14:52:51;;;;;;;3.70;3.37;;;6.20;96.30;;;;;;4975820;28;20171;-79
2020/12/17 14:55:18;;;;;;;5.90;2.93;;;6.30;96.30;;;;;;4978580;28;20212;-79
2020/12/17 14:57:43;;;;;;;13.47;9.07;;;6.40;96.30;;;;;;4984398;28;20216;-79
2020/12/17 15:00:09;;;;;;;6.20;4.00;;;6.60;96.30;;;;;;4995886;28;20484;-78
2020/12/17 15:02:34;;;;;;;7.37;3.47;;;6.50;96.30;;;;;;4988159;28;20283;-79
2020/12/17 15:05:00;;;;;;;4.43;2.63;;;6.60;96.30;;;;;;4977025;28;20296;-79
2020/12/17 15:07:25;;;;;;;6.40;3.53;;;6.50;96.30;;;;;;4984389;28;20206;-79
2020/12/17 15:09:51;;;;;;;8.60;5.40;;;6.40;96.30;;;;;;4977380;28;20179;-79
2020/12/17 15:12:16;;;;;;;5.30;2.53;;;6.70;96.30;;;;;;4990933;28;20182;-79
2020/12/17 15:14:42;;;;;;;4.97;2.50;;;6.90;96.30;;;;;;4975958;28;20249;-79
2020/12/17 15:17:08;;;;;;;3.20;2.53;;;6.80;96.30;;;;;;4984428;28;20173;-79
2020/12/17 15:19:34;;;;;;;3.83;2.87;;;6.90;96.30;;;;;;4995664;28;20178;-79
2020/12/17 15:22:00;;;;;;;21.87;10.77;;;6.90;96.30;;;;;;4992762;28;20448;-79
2020/12/17 15:24:26;;;;;;;4.70;2.90;;;7.00;96.30;;;;;;4991126;28;20460;-79
2020/12/17 15:26:51;;;;;;;4.53;2.63;;;7.10;96.30;;;;;;4993358;28;20186;-79
2020/12/17 15:29:17;;;;;;;14.33;7.20;;;7.00;96.30;;;;;;4991877;28;20449;-79
2020/12/17 15:31:42;;;;;;;8.50;3.30;;;7.00;96.30;;;;;;4996559;28;20177;-79
2020/12/17 15:34:07;;;;;;;23.63;15.67;;;7.10;96.30;;;;;;4997551;28;20276;-79
2020/12/17 15:36:33;;;;;;;6.10;3.60;;;7.00;96.30;;;;;;4992389;28;20189;-78
2020/12/17 15:38:58;;;;;;;5.10;2.70;;;7.10;96.30;;;;;;4991509;28;20249;-78
2020/12/17 15:41:25;;;;;;;4.87;3.40;;;7.00;96.30;;;;;;4992444;28;20315;-78
2020/12/17 15:43:50;;;;;;;7.20;3.17;;;7.00;96.30;;;;;;4987945;28;20218;-79
2020/12/17 15:46:16;;;;;;;4.10;2.47;;;7.00;96.30;;;;;;4994360;28;20440;-79
2020/12/17 15:48:42;;;;;;;4.00;2.63;;;7.00;96.30;;;;;;4990857;28;20209;-79
2020/12/17 15:51:12;;;;;;;6.47;3.00;;;7.00;96.30;;;;;;4993476;28;20210;-79
2020/12/17 15:53:38;;;;;;;18.23;11.10;;;7.00;96.30;;;;;;4992150;28;20420;-79
2020/12/17 15:56:05;;;;;;;4.77;3.63;;;6.80;96.30;;;;;;4991600;28;20479;-79
2020/12/17 15:58:31;;;;;;;5.20;3.43;;;6.70;96.30;;;;;;4988206;28;20460;-79
2020/12/17 16:00:56;;;;;;;5.07;2.47;;;6.70;96.30;;;;;;4987432;28;20445;-78
2020/12/17 16:03:22;;;;;;;6.20;2.87;;;6.80;96.30;;;;;;4989165;28;20213;-78
2020/12/17 16:05:48;;;;;;;5.17;2.20;;;6.80;96.30;;;;;;4992307;28;20688;-78
2020/12/17 16:08:14;;;;;;;6.03;3.37;;;6.70;96.30;;;;;;4986543;28;20243;-78
2020/12/17 16:10:40;;;;;;;4.40;2.97;;;6.70;96.30;;;;;;4984322;28;20241;-78
2020/12/17 16:13:05;;;;;;;5.83;2.80;;;6.80;96.30;;;;;;4985416;28;20426;-78
2020/12/17 16:15:31;;;;;;;4.17;2.97;;;6.80;96.30;;;;;;4989339;28;20240;-79
2020/12/17 16:17:57;;;;;;;4.30;3.10;;;6.80;96.30;;;;;;4989743;28;20173;-79
2020/12/17 16:20:23;;;;;;;4.30;2.77;;;6.70;96.30;;;;;;4985393;28;20475;-79
2020/12/17 16:22:49;;;;;;;5.60;3.20;;;6.70;96.30;;;;;;4992957;28;20211;-80
2020/12/17 16:25:15;;;;;;;6.43;2.77;;;6.70;96.30;;;;;;4984805;28;20337;-78
2020/12/17 16:27:41;;;;;;;4.67;2.93;;;6.70;96.30;;;;;;4990428;28;20198;-76
2020/12/17 16:30:06;;;;;;;5.33;3.60;;;6.70;96.30;;;;;;4986944;28;20424;-76
2020/12/17 16:32:32;;;;;;;4.50;3.20;;;6.70;96.30;;;;;;4987790;28;20535;-77
2020/12/17 16:34:57;;;;;;;4.63;3.30;;;6.60;96.30;;;;;;4985782;28;20194;-77
2020/12/17 16:37:23;;;;;;;11.80;4.00;;;6.60;96.30;;;;;;4983862;28;20208;-77
2020/12/17 16:39:48;;;;;;;4.20;3.20;;;6.60;96.30;;;;;;4988859;28;20203;-76
2020/12/17 16:42:17;;;;;;;3.83;3.43;;;6.70;96.30;;;;;;4987947;28;20260;-79
2020/12/17 16:44:43;;;;;;;4.23;3.23;;;6.60;96.30;;;;;;4980433;28;20244;-77
2020/12/17 16:47:08;;;;;;;4.20;3.77;;;6.60;96.30;;;;;;4984754;28;20410;-77